sensor_id;sensor_type;location;lat;lon;timestamp;pressure;altitude;pressure_sealevel;temperature;humidity
74905;BME280;63465;50.862;6.220;2023-07-29T00:01:34;99254.22;;;18.35;100.00
74905;BME280;63465;50.862;6.220;2023-07-29T00:03:59;99261.47;;;18.44;100.00
74905;BME280;63465;50.862;6.220;2023-07-29T00:06:24;99257.13;;;18.63;100.00
74905;BME280;63465;50.862;6.220;2023-07-29T00:08:50;99246.25;;;18.64;100.00
74905;BME280;63465;50.862;6.220;2023-07-29T00:11:15;99242.00;;;18.62;100.00
74905;BME280;63465;50.862;6.220;2023-07-29T00:13:40;99251.19;;;18.59;100.00
74905;BME280;63465;50.862;6.220;2023-07-29T00:16:06;99244.41;;;18.65;100.00
74905;BME280;63465;50.862;6.220;2023-07-29T00:18:31;99238.19;;;18.64;100.00
74905;BME280;63465;50.862;6.220;2023-07-29T00:20:57;99239.06;;;18.75;100.00
74905;BME280;63465;50.862;6.220;2023-07-29T00:23:23;99239.22;;;18.73;100.00
74905;BME280;63465;50.862;6.220;2023-07-29T00:25:48;99233.84;;;18.73;100.00
74905;BME280;63465;50.862;6.220;2023-07-29T00:28:13;99241.66;;;18.86;100.00
74905;BME280;63465;50.862;6.220;2023-07-29T00:30:38;99233.59;;;18.86;100.00
74905;BME280;63465;50.862;6.220;2023-07-29T00:33:04;99231.44;;;18.89;100.00
74905;BME280;63465;50.862;6.220;2023-07-29T00:35:29;99232.75;;;18.95;100.00
74905;BME280;63465;50.862;6.220;2023-07-29T00:37:54;99229.63;;;19.00;100.00
74905;BME280;63465;50.862;6.220;2023-07-29T00:40:21;99235.16;;;18.98;100.00
74905;BME280;63465;50.862;6.220;2023-07-29T00:42:48;99228.66;;;19.01;100.00
74905;BME280;63465;50.862;6.220;2023-07-29T00:45:14;99231.34;;;19.01;100.00
74905;BME280;63465;50.862;6.220;2023-07-29T00:47:40;99231.06;;;19.04;100.00
74905;BME280;63465;50.862;6.220;2023-07-29T00:50:06;99229.22;;;19.04;100.00
74905;BME280;63465;50.862;6.220;2023-07-29T00:52:32;99239.56;;;18.99;100.00
74905;BME280;63465;50.862;6.220;2023-07-29T00:54:58;99235.28;;;18.97;100.00
74905;BME280;63465;50.862;6.220;2023-07-29T00:57:24;99222.56;;;18.89;100.00
74905;BME280;63465;50.862;6.220;2023-07-29T00:59:51;99226.50;;;18.85;100.00
74905;BME280;63465;50.862;6.220;2023-07-29T01:02:16;99230.75;;;18.87;100.00
74905;BME280;63465;50.862;6.220;2023-07-29T01:04:42;99237.63;;;18.80;100.00
74905;BME280;63465;50.862;6.220;2023-07-29T01:07:26;99238.94;;;18.76;100.00
74905;BME280;63465;50.862;6.220;2023-07-29T01:10:04;99233.56;;;18.76;100.00
74905;BME280;63465;50.862;6.220;2023-07-29T01:13:00;99237.63;;;18.80;100.00
74905;BME280;63465;50.862;6.220;2023-07-29T01:15:36;99230.88;;;18.76;100.00
74905;BME280;63465;50.862;6.220;2023-07-29T01:18:06;99230.88;;;18.76;100.00
74905;BME280;63465;50.862;6.220;2023-07-29T01:20:37;99232.53;;;18.77;100.00
74905;BME280;63465;50.862;6.220;2023-07-29T01:23:02;99227.75;;;18.81;100.00
74905;BME280;63465;50.862;6.220;2023-07-29T01:25:28;99223.91;;;18.83;100.00
74905;BME280;63465;50.862;6.220;2023-07-29T01:27:53;99230.59;;;18.79;100.00
74905;BME280;63465;50.862;6.220;2023-07-29T01:30:20;99228.03;;;18.78;100.00
74905;BME280;63465;50.862;6.220;2023-07-29T01:32:54;99231.44;;;18.80;100.00
74905;BME280;63465;50.862;6.220;2023-07-29T01:35:25;99237.50;;;18.82;100.00
74905;BME280;63465;50.862;6.220;2023-07-29T01:37:59;99240.19;;;18.82;100.00
74905;BME280;63465;50.862;6.220;2023-07-29T01:40:28;99241.34;;;18.79;100.00
74905;BME280;63465;50.862;6.220;2023-07-29T01:42:53;99245.56;;;18.82;100.00
74905;BME280;63465;50.862;6.220;2023-07-29T01:45:23;99245.84;;;18.79;100.00
74905;BME280;63465;50.862;6.220;2023-07-29T01:47:49;99242.19;;;18.80;100.00
74905;BME280;63465;50.862;6.220;2023-07-29T01:50:14;99240.59;;;18.77;100.00
74905;BME280;63465;50.862;6.220;2023-07-29T01:52:39;99233.97;;;18.71;100.00
74905;BME280;63465;50.862;6.220;2023-07-29T01:55:05;99242.31;;;18.68;100.00
74905;BME280;63465;50.862;6.220;2023-07-29T01:57:30;99225.88;;;18.62;100.00
74905;BME280;63465;50.862;6.220;2023-07-29T01:59:55;99234.50;;;18.56;100.00
74905;BME280;63465;50.862;6.220;2023-07-29T02:02:21;99221.78;;;18.58;100.00
74905;BME280;63465;50.862;6.220;2023-07-29T02:04:46;99225.16;;;18.60;100.00
74905;BME280;63465;50.862;6.220;2023-07-29T02:07:16;99219.78;;;18.50;100.00
74905;BME280;63465;50.862;6.220;2023-07-29T02:09:41;99226.84;;;18.51;100.00
74905;BME280;63465;50.862;6.220;2023-07-29T02:12:07;99220.75;;;18.49;100.00
74905;BME280;63465;50.862;6.220;2023-07-29T02:14:32;99224.00;;;18.43;100.00
74905;BME280;63465;50.862;6.220;2023-07-29T02:16:57;99221.75;;;18.48;100.00
74905;BME280;63465;50.862;6.220;2023-07-29T02:19:23;99222.63;;;18.48;100.00
74905;BME280;63465;50.862;6.220;2023-07-29T02:21:48;99228.00;;;18.48;100.00
74905;BME280;63465;50.862;6.220;2023-07-29T02:24:13;99219.78;;;18.50;100.00
74905;BME280;63465;50.862;6.220;2023-07-29T02:26:39;99206.78;;;18.45;100.00
74905;BME280;63465;50.862;6.220;2023-07-29T02:29:04;99202.94;;;18.48;100.00
74905;BME280;63465;50.862;6.220;2023-07-29T02:31:29;99210.16;;;18.47;100.00
74905;BME280;63465;50.862;6.220;2023-07-29T02:33:54;99216.63;;;18.35;100.00
74905;BME280;63465;50.862;6.220;2023-07-29T02:36:21;99212.09;;;18.35;100.00
74905;BME280;63465;50.862;6.220;2023-07-29T02:38:46;99215.63;;;18.36;100.00
74905;BME280;63465;50.862;6.220;2023-07-29T02:41:11;99206.16;;;18.42;100.00
74905;BME280;63465;50.862;6.220;2023-07-29T02:43:38;99209.00;;;18.40;100.00
74905;BME280;63465;50.862;6.220;2023-07-29T02:46:04;99217.34;;;18.37;100.00
74905;BME280;63465;50.862;6.220;2023-07-29T02:48:29;99227.09;;;18.38;100.00
74905;BME280;63465;50.862;6.220;2023-07-29T02:50:55;99222.28;;;18.32;100.00
74905;BME280;63465;50.862;6.220;2023-07-29T02:53:22;99212.94;;;18.36;100.00
74905;BME280;63465;50.862;6.220;2023-07-29T02:55:47;99205.16;;;18.33;100.00
74905;BME280;63465;50.862;6.220;2023-07-29T02:58:12;99195.69;;;18.29;100.00
74905;BME280;63465;50.862;6.220;2023-07-29T03:00:38;99208.53;;;18.25;100.00
74905;BME280;63465;50.862;6.220;2023-07-29T03:03:06;99207.25;;;18.20;100.00
74905;BME280;63465;50.862;6.220;2023-07-29T03:05:32;99219.25;;;18.15;100.00
74905;BME280;63465;50.862;6.220;2023-07-29T03:07:57;99224.34;;;18.18;100.00
74905;BME280;63465;50.862;6.220;2023-07-29T03:10:23;99222.50;;;18.19;100.00
74905;BME280;63465;50.862;6.220;2023-07-29T03:12:48;99217.66;;;18.13;100.00
74905;BME280;63465;50.862;6.220;2023-07-29T03:15:13;99221.34;;;18.12;100.00
74905;BME280;63465;50.862;6.220;2023-07-29T03:17:39;99212.91;;;18.16;100.00
74905;BME280;63465;50.862;6.220;2023-07-29T03:20:05;99213.03;;;18.15;100.00
74905;BME280;63465;50.862;6.220;2023-07-29T03:22:30;99204.50;;;18.10;100.00
74905;BME280;63465;50.862;6.220;2023-07-29T03:24:55;99201.97;;;18.08;100.00
74905;BME280;63465;50.862;6.220;2023-07-29T03:27:21;99207.59;;;18.05;100.00
74905;BME280;63465;50.862;6.220;2023-07-29T03:29:46;99227.41;;;18.04;100.00
74905;BME280;63465;50.862;6.220;2023-07-29T03:32:11;99225.69;;;18.03;100.00
74905;BME280;63465;50.862;6.220;2023-07-29T03:34:37;99215.09;;;18.02;100.00
74905;BME280;63465;50.862;6.220;2023-07-29T03:37:02;99217.38;;;18.06;100.00
74905;BME280;63465;50.862;6.220;2023-07-29T03:39:27;99222.47;;;18.09;100.00
74905;BME280;63465;50.862;6.220;2023-07-29T03:41:53;99226.66;;;18.02;100.00
74905;BME280;63465;50.862;6.220;2023-07-29T03:44:18;99229.50;;;18.00;100.00
74905;BME280;63465;50.862;6.220;2023-07-29T03:46:44;99224.13;;;18.00;100.00
74905;BME280;63465;50.862;6.220;2023-07-29T03:49:10;99224.25;;;17.99;100.00
74905;BME280;63465;50.862;6.220;2023-07-29T03:51:35;99224.13;;;18.00;100.00
74905;BME280;63465;50.862;6.220;2023-07-29T03:54:00;99230.75;;;17.96;100.00
74905;BME280;63465;50.862;6.220;2023-07-29T03:56:26;99233.75;;;18.03;100.00
74905;BME280;63465;50.862;6.220;2023-07-29T03:58:52;99243.28;;;18.17;100.00
74905;BME280;63465;50.862;6.220;2023-07-29T04:01:18;99241.81;;;18.03;100.00
74905;BME280;63465;50.862;6.220;2023-07-29T04:03:44;99234.44;;;18.05;100.00
74905;BME280;63465;50.862;6.220;2023-07-29T04:06:11;99243.09;;;18.09;100.00
74905;BME280;63465;50.862;6.220;2023-07-29T04:08:36;99244.94;;;18.08;100.00
74905;BME280;63465;50.862;6.220;2023-07-29T04:11:01;99240.84;;;18.14;100.00
74905;BME280;63465;50.862;6.220;2023-07-29T04:13:27;99244.25;;;18.16;100.00
74905;BME280;63465;50.862;6.220;2023-07-29T04:15:52;99246.94;;;18.16;100.00
74905;BME280;63465;50.862;6.220;2023-07-29T04:18:17;99244.78;;;18.10;100.00
74905;BME280;63465;50.862;6.220;2023-07-29T04:20:43;99246.22;;;18.14;100.00
74905;BME280;63465;50.862;6.220;2023-07-29T04:23:08;99225.84;;;18.11;100.00
74905;BME280;63465;50.862;6.220;2023-07-29T04:25:34;99220.50;;;18.11;100.00
74905;BME280;63465;50.862;6.220;2023-07-29T04:27:59;99223.72;;;18.05;100.00
74905;BME280;63465;50.862;6.220;2023-07-29T04:30:24;99214.97;;;18.03;100.00
74905;BME280;63465;50.862;6.220;2023-07-29T04:32:50;99209.41;;;17.95;100.00
74905;BME280;63465;50.862;6.220;2023-07-29T04:35:15;99211.38;;;17.93;100.00
74905;BME280;63465;50.862;6.220;2023-07-29T04:37:40;99215.69;;;17.84;100.00
74905;BME280;63465;50.862;6.220;2023-07-29T04:40:06;99212.16;;;17.83;100.00
74905;BME280;63465;50.862;6.220;2023-07-29T04:42:32;99216.09;;;17.79;100.00
74905;BME280;63465;50.862;6.220;2023-07-29T04:44:57;99224.28;;;17.78;100.00
74905;BME280;63465;50.862;6.220;2023-07-29T04:47:22;99223.94;;;17.71;100.00
74905;BME280;63465;50.862;6.220;2023-07-29T04:49:48;99233.44;;;17.75;100.00
74905;BME280;63465;50.862;6.220;2023-07-29T04:52:13;99234.69;;;17.71;100.00
74905;BME280;63465;50.862;6.220;2023-07-29T04:54:40;99233.38;;;17.65;100.00
74905;BME280;63465;50.862;6.220;2023-07-29T04:57:05;99244.84;;;17.68;100.00
74905;BME280;63465;50.862;6.220;2023-07-29T04:59:30;99243.13;;;17.67;100.00
74905;BME280;63465;50.862;6.220;2023-07-29T05:01:56;99249.34;;;17.67;100.00
74905;BME280;63465;50.862;6.220;2023-07-29T05:04:21;99241.53;;;17.64;100.00
74905;BME280;63465;50.862;6.220;2023-07-29T05:06:46;99239.78;;;17.74;100.00
74905;BME280;63465;50.862;6.220;2023-07-29T05:09:16;99229.53;;;17.79;100.00
74905;BME280;63465;50.862;6.220;2023-07-29T05:11:42;99249.41;;;17.77;100.00
74905;BME280;63465;50.862;6.220;2023-07-29T05:14:08;99242.59;;;17.73;100.00
74905;BME280;63465;50.862;6.220;2023-07-29T05:16:34;99262.16;;;17.85;100.00
74905;BME280;63465;50.862;6.220;2023-07-29T05:19:00;99263.75;;;17.87;100.00
74905;BME280;63465;50.862;6.220;2023-07-29T05:21:25;99264.53;;;17.99;100.00
74905;BME280;63465;50.862;6.220;2023-07-29T05:23:50;99269.25;;;17.86;100.00
74905;BME280;63465;50.862;6.220;2023-07-29T05:26:16;99267.88;;;17.91;100.00
74905;BME280;63465;50.862;6.220;2023-07-29T05:28:41;99270.78;;;17.88;100.00
74905;BME280;63465;50.862;6.220;2023-07-29T05:31:06;99271.75;;;17.98;100.00
74905;BME280;63465;50.862;6.220;2023-07-29T05:33:31;99280.84;;;18.07;100.00
74905;BME280;63465;50.862;6.220;2023-07-29T05:35:57;99279.97;;;18.07;100.00
74905;BME280;63465;50.862;6.220;2023-07-29T05:38:22;99276.56;;;18.05;100.00
74905;BME280;63465;50.862;6.220;2023-07-29T05:40:48;99264.59;;;18.09;100.00
74905;BME280;63465;50.862;6.220;2023-07-29T05:43:13;99275.50;;;18.17;100.00
74905;BME280;63465;50.862;6.220;2023-07-29T05:45:40;99282.78;;;18.05;100.00
74905;BME280;63465;50.862;6.220;2023-07-29T05:48:05;99288.28;;;18.04;100.00
74905;BME280;63465;50.862;6.220;2023-07-29T05:50:30;99287.63;;;18.11;100.00
74905;BME280;63465;50.862;6.220;2023-07-29T05:52:56;99296.59;;;18.00;100.00
74905;BME280;63465;50.862;6.220;2023-07-29T05:55:21;99300.72;;;18.05;100.00
74905;BME280;63465;50.862;6.220;2023-07-29T05:57:46;99291.16;;;18.12;100.00
74905;BME280;63465;50.862;6.220;2023-07-29T06:00:12;99292.53;;;18.06;100.00
74905;BME280;63465;50.862;6.220;2023-07-29T06:02:37;99291.88;;;18.14;100.00
74905;BME280;63465;50.862;6.220;2023-07-29T06:05:03;99295.66;;;18.11;100.00
74905;BME280;63465;50.862;6.220;2023-07-29T06:07:29;99288.63;;;18.10;100.00
74905;BME280;63465;50.862;6.220;2023-07-29T06:09:55;99292.19;;;18.21;100.00
74905;BME280;63465;50.862;6.220;2023-07-29T06:12:21;99298.56;;;18.20;100.00
74905;BME280;63465;50.862;6.220;2023-07-29T06:14:46;99302.91;;;18.21;100.00
74905;BME280;63465;50.862;6.220;2023-07-29T06:17:11;99297.78;;;18.39;100.00
74905;BME280;63465;50.862;6.220;2023-07-29T06:19:37;99290.41;;;18.31;100.00
74905;BME280;63465;50.862;6.220;2023-07-29T06:22:03;99288.16;;;18.36;100.00
74905;BME280;63465;50.862;6.220;2023-07-29T06:24:29;99280.81;;;18.38;100.00
74905;BME280;63465;50.862;6.220;2023-07-29T06:26:54;99290.03;;;18.45;100.00
74905;BME280;63465;50.862;6.220;2023-07-29T06:29:20;99284.47;;;18.37;100.00
74905;BME280;63465;50.862;6.220;2023-07-29T06:31:45;99296.69;;;18.51;100.00
74905;BME280;63465;50.862;6.220;2023-07-29T06:34:11;99280.81;;;18.38;100.00
74905;BME280;63465;50.862;6.220;2023-07-29T06:36:36;99283.81;;;18.45;100.00
74905;BME280;63465;50.862;6.220;2023-07-29T06:39:01;99270.59;;;18.72;100.00
74905;BME280;63465;50.862;6.220;2023-07-29T06:41:27;99259.72;;;18.84;100.00
74905;BME280;63465;50.862;6.220;2023-07-29T06:43:52;99242.88;;;18.72;100.00
74905;BME280;63465;50.862;6.220;2023-07-29T06:46:17;99247.91;;;18.56;100.00
74905;BME280;63465;50.862;6.220;2023-07-29T06:48:43;99250.94;;;18.62;100.00
74905;BME280;63465;50.862;6.220;2023-07-29T06:51:08;99247.69;;;18.78;100.00
74905;BME280;63465;50.862;6.220;2023-07-29T06:53:33;99240.81;;;18.85;100.00
74905;BME280;63465;50.862;6.220;2023-07-29T06:55:58;99250.88;;;18.52;100.00
74905;BME280;63465;50.862;6.220;2023-07-29T06:58:24;99265.19;;;18.63;100.00
74905;BME280;63465;50.862;6.220;2023-07-29T07:00:50;99265.31;;;18.51;100.00
74905;BME280;63465;50.862;6.220;2023-07-29T07:03:15;99268.44;;;18.66;100.00
74905;BME280;63465;50.862;6.220;2023-07-29T07:05:40;99274.94;;;18.54;100.00
74905;BME280;63465;50.862;6.220;2023-07-29T07:08:06;99279.78;;;18.70;100.00
74905;BME280;63465;50.862;6.220;2023-07-29T07:10:31;99275.97;;;18.72;100.00
74905;BME280;63465;50.862;6.220;2023-07-29T07:12:59;99275.25;;;18.70;100.00
74905;BME280;63465;50.862;6.220;2023-07-29T07:15:24;99270.72;;;18.71;100.00
74905;BME280;63465;50.862;6.220;2023-07-29T07:17:51;99274.97;;;18.64;100.00
74905;BME280;63465;50.862;6.220;2023-07-29T07:20:16;99267.63;;;18.66;100.00
74905;BME280;63465;50.862;6.220;2023-07-29T07:22:41;99259.69;;;18.64;100.00
74905;BME280;63465;50.862;6.220;2023-07-29T07:25:07;99264.50;;;18.61;100.00
74905;BME280;63465;50.862;6.220;2023-07-29T07:27:32;99257.69;;;18.57;100.00
74905;BME280;63465;50.862;6.220;2023-07-29T07:29:57;99259.63;;;18.95;100.00
74905;BME280;63465;50.862;6.220;2023-07-29T07:32:23;99246.91;;;19.07;100.00
74905;BME280;63465;50.862;6.220;2023-07-29T07:34:48;99257.09;;;19.42;100.00
74905;BME280;63465;50.862;6.220;2023-07-29T07:37:13;99255.50;;;19.79;100.00
74905;BME280;63465;50.862;6.220;2023-07-29T07:39:39;99258.59;;;19.65;100.00
74905;BME280;63465;50.862;6.220;2023-07-29T07:42:04;99243.31;;;19.65;100.00
74905;BME280;63465;50.862;6.220;2023-07-29T07:44:30;99251.00;;;19.40;100.00
74905;BME280;63465;50.862;6.220;2023-07-29T07:46:55;99253.66;;;19.70;100.00
74905;BME280;63465;50.862;6.220;2023-07-29T07:49:20;99246.41;;;19.90;100.00
74905;BME280;63465;50.862;6.220;2023-07-29T07:51:45;99234.47;;;20.58;100.00
74905;BME280;63465;50.862;6.220;2023-07-29T07:54:11;99231.84;;;20.76;100.00
74905;BME280;63465;50.862;6.220;2023-07-29T07:56:36;99230.50;;;20.62;100.00
74905;BME280;63465;50.862;6.220;2023-07-29T07:59:01;99233.19;;;20.34;100.00
74905;BME280;63465;50.862;6.220;2023-07-29T08:01:27;99225.84;;;19.89;100.00
74905;BME280;63465;50.862;6.220;2023-07-29T08:03:52;99232.38;;;19.96;100.00
74905;BME280;63465;50.862;6.220;2023-07-29T08:06:17;99230.44;;;20.16;100.00
74905;BME280;63465;50.862;6.220;2023-07-29T08:08:42;99231.19;;;20.08;100.00
74905;BME280;63465;50.862;6.220;2023-07-29T08:11:08;99225.75;;;19.61;100.00
74905;BME280;63465;50.862;6.220;2023-07-29T08:13:33;99234.97;;;19.58;100.00
74905;BME280;63465;50.862;6.220;2023-07-29T08:15:58;99236.91;;;19.95;100.00
74905;BME280;63465;50.862;6.220;2023-07-29T08:18:24;99235.53;;;20.19;100.00
74905;BME280;63465;50.862;6.220;2023-07-29T08:20:53;99248.53;;;19.76;100.00
74905;BME280;63465;50.862;6.220;2023-07-29T08:23:21;99243.59;;;20.19;100.00
74905;BME280;63465;50.862;6.220;2023-07-29T08:25:54;99241.06;;;20.18;100.00
74905;BME280;63465;50.862;6.220;2023-07-29T08:28:21;99238.13;;;20.11;100.00
74905;BME280;63465;50.862;6.220;2023-07-29T08:30:46;99245.41;;;20.56;100.00
74905;BME280;63465;50.862;6.220;2023-07-29T08:33:12;99237.03;;;20.59;100.00
74905;BME280;63465;50.862;6.220;2023-07-29T08:35:37;99244.19;;;20.78;100.00
74905;BME280;63465;50.862;6.220;2023-07-29T08:38:02;99238.97;;;20.39;100.00
74905;BME280;63465;50.862;6.220;2023-07-29T08:40:30;99234.16;;;20.43;100.00
74905;BME280;63465;50.862;6.220;2023-07-29T08:42:58;99243.00;;;20.25;100.00
74905;BME280;63465;50.862;6.220;2023-07-29T08:45:24;99240.97;;;20.37;100.00
74905;BME280;63465;50.862;6.220;2023-07-29T08:47:54;99246.13;;;20.58;100.00
74905;BME280;63465;50.862;6.220;2023-07-29T08:50:23;99249.50;;;20.60;100.00
74905;BME280;63465;50.862;6.220;2023-07-29T08:52:51;99244.50;;;20.75;100.00
74905;BME280;63465;50.862;6.220;2023-07-29T08:55:18;99248.31;;;20.45;100.00
74905;BME280;63465;50.862;6.220;2023-07-29T08:57:44;99236.56;;;20.64;100.00
74905;BME280;63465;50.862;6.220;2023-07-29T09:00:10;99239.69;;;20.41;100.00
74905;BME280;63465;50.862;6.220;2023-07-29T09:02:36;99249.41;;;20.52;100.00
74905;BME280;63465;50.862;6.220;2023-07-29T09:05:01;99242.81;;;20.37;100.00
74905;BME280;63465;50.862;6.220;2023-07-29T09:07:27;99244.88;;;20.80;100.00
74905;BME280;63465;50.862;6.220;2023-07-29T09:09:53;99244.41;;;20.57;100.00
74905;BME280;63465;50.862;6.220;2023-07-29T09:12:19;99249.19;;;20.91;100.00
74905;BME280;63465;50.862;6.220;2023-07-29T09:14:44;99254.75;;;21.08;100.00
74905;BME280;63465;50.862;6.220;2023-07-29T09:17:10;99254.09;;;20.50;100.00
74905;BME280;63465;50.862;6.220;2023-07-29T09:19:35;99253.41;;;20.20;100.00
74905;BME280;63465;50.862;6.220;2023-07-29T09:22:00;99260.16;;;20.24;100.00
74905;BME280;63465;50.862;6.220;2023-07-29T09:24:26;99267.50;;;19.94;100.00
74905;BME280;63465;50.862;6.220;2023-07-29T09:26:54;99267.22;;;19.98;100.00
74905;BME280;63465;50.862;6.220;2023-07-29T09:29:23;99275.88;;;19.72;100.00
74905;BME280;63465;50.862;6.220;2023-07-29T09:31:49;99271.50;;;19.71;100.00
74905;BME280;63465;50.862;6.220;2023-07-29T09:34:15;99271.91;;;19.76;100.00
74905;BME280;63465;50.862;6.220;2023-07-29T09:36:40;99279.03;;;19.77;100.00
74905;BME280;63465;50.862;6.220;2023-07-29T09:39:11;99286.25;;;19.67;100.00
74905;BME280;63465;50.862;6.220;2023-07-29T09:41:37;99278.19;;;19.67;100.00
74905;BME280;63465;50.862;6.220;2023-07-29T09:44:03;99278.78;;;19.31;100.00
74905;BME280;63465;50.862;6.220;2023-07-29T09:46:34;99276.75;;;19.43;100.00
74905;BME280;63465;50.862;6.220;2023-07-29T09:49:02;99285.25;;;19.58;100.00
74905;BME280;63465;50.862;6.220;2023-07-29T09:51:27;99285.28;;;19.48;100.00
74905;BME280;63465;50.862;6.220;2023-07-29T09:53:52;99300.16;;;19.33;100.00
74905;BME280;63465;50.862;6.220;2023-07-29T09:56:18;99309.63;;;19.17;100.00
74905;BME280;63465;50.862;6.220;2023-07-29T09:58:48;99307.63;;;19.58;100.00
74905;BME280;63465;50.862;6.220;2023-07-29T10:01:14;99311.88;;;19.12;100.00
74905;BME280;63465;50.862;6.220;2023-07-29T10:03:40;99317.97;;;19.14;100.00
74905;BME280;63465;50.862;6.220;2023-07-29T10:06:06;99315.00;;;19.66;100.00
74905;BME280;63465;50.862;6.220;2023-07-29T10:08:33;99306.94;;;19.27;100.00
74905;BME280;63465;50.862;6.220;2023-07-29T10:11:05;99310.91;;;19.62;100.00
74905;BME280;63465;50.862;6.220;2023-07-29T10:13:31;99285.31;;;20.15;100.00
74905;BME280;63465;50.862;6.220;2023-07-29T10:15:57;99280.88;;;19.86;100.00
74905;BME280;63465;50.862;6.220;2023-07-29T10:18:24;99290.19;;;20.39;100.00
74905;BME280;63465;50.862;6.220;2023-07-29T10:20:52;99267.09;;;20.92;100.00
74905;BME280;63465;50.862;6.220;2023-07-29T10:23:18;99270.22;;;21.06;100.00
74905;BME280;63465;50.862;6.220;2023-07-29T10:25:47;99264.47;;;21.36;100.00
74905;BME280;63465;50.862;6.220;2023-07-29T10:28:15;99258.75;;;21.40;100.00
74905;BME280;63465;50.862;6.220;2023-07-29T10:30:41;99269.97;;;21.09;100.00
74905;BME280;63465;50.862;6.220;2023-07-29T10:33:06;99262.00;;;21.25;100.00
74905;BME280;63465;50.862;6.220;2023-07-29T10:35:33;99258.84;;;21.66;100.00
74905;BME280;63465;50.862;6.220;2023-07-29T10:37:59;99253.78;;;22.50;100.00
74905;BME280;63465;50.862;6.220;2023-07-29T10:40:25;99248.53;;;21.96;100.00
74905;BME280;63465;50.862;6.220;2023-07-29T10:43:02;99250.22;;;21.26;100.00
74905;BME280;63465;50.862;6.220;2023-07-29T10:45:36;99259.31;;;21.61;100.00
74905;BME280;63465;50.862;6.220;2023-07-29T10:50:50;99243.47;;;21.48;100.00
74905;BME280;63465;50.862;6.220;2023-07-29T10:53:17;99243.47;;;22.53;100.00
74905;BME280;63465;50.862;6.220;2023-07-29T10:55:43;99240.09;;;22.25;100.00
74905;BME280;63465;50.862;6.220;2023-07-29T10:58:12;99246.75;;;22.31;100.00
74905;BME280;63465;50.862;6.220;2023-07-29T11:00:41;99242.78;;;21.64;100.00
74905;BME280;63465;50.862;6.220;2023-07-29T11:03:07;99227.88;;;22.13;100.00
74905;BME280;63465;50.862;6.220;2023-07-29T11:05:53;99229.38;;;22.33;100.00
74905;BME280;63465;50.862;6.220;2023-07-29T11:08:29;99228.94;;;22.54;100.00
74905;BME280;63465;50.862;6.220;2023-07-29T11:11:03;99224.50;;;23.45;100.00
74905;BME280;63465;50.862;6.220;2023-07-29T11:13:31;99220.78;;;23.88;100.00
74905;BME280;63465;50.862;6.220;2023-07-29T11:15:57;99226.06;;;23.23;100.00
74905;BME280;63465;50.862;6.220;2023-07-29T11:18:27;99222.81;;;23.53;100.00
74905;BME280;63465;50.862;6.220;2023-07-29T11:20:54;99222.94;;;24.00;100.00
74905;BME280;63465;50.862;6.220;2023-07-29T11:23:19;99229.94;;;23.37;100.00
74905;BME280;63465;50.862;6.220;2023-07-29T11:25:45;99229.28;;;22.25;100.00
74905;BME280;63465;50.862;6.220;2023-07-29T11:28:11;99238.00;;;22.96;100.00
74905;BME280;63465;50.862;6.220;2023-07-29T11:30:39;99234.34;;;22.54;100.00
74905;BME280;63465;50.862;6.220;2023-07-29T11:33:04;99235.72;;;22.24;100.00
74905;BME280;63465;50.862;6.220;2023-07-29T11:35:32;99227.59;;;22.58;100.00
74905;BME280;63465;50.862;6.220;2023-07-29T11:37:57;99220.94;;;22.36;100.00
74905;BME280;63465;50.862;6.220;2023-07-29T11:40:23;99214.44;;;22.80;100.00
74905;BME280;63465;50.862;6.220;2023-07-29T11:42:51;99225.84;;;23.08;100.00
74905;BME280;63465;50.862;6.220;2023-07-29T11:45:17;99225.88;;;23.25;100.00
74905;BME280;63465;50.862;6.220;2023-07-29T11:47:42;99216.88;;;23.49;100.00
74905;BME280;63465;50.862;6.220;2023-07-29T11:50:09;99212.47;;;23.64;100.00
74905;BME280;63465;50.862;6.220;2023-07-29T11:52:36;99211.63;;;23.72;100.00
74905;BME280;63465;50.862;6.220;2023-07-29T11:55:03;99209.13;;;23.54;100.00
74905;BME280;63465;50.862;6.220;2023-07-29T11:57:30;99206.53;;;23.03;100.00
74905;BME280;63465;50.862;6.220;2023-07-29T11:59:55;99195.56;;;23.46;100.00
74905;BME280;63465;50.862;6.220;2023-07-29T12:02:22;99185.59;;;24.19;100.00
74905;BME280;63465;50.862;6.220;2023-07-29T12:04:48;99176.47;;;24.60;100.00
74905;BME280;63465;50.862;6.220;2023-07-29T12:07:16;99183.69;;;22.73;100.00
74905;BME280;63465;50.862;6.220;2023-07-29T12:09:42;99170.66;;;23.67;100.00
74905;BME280;63465;50.862;6.220;2023-07-29T12:12:08;99172.84;;;23.80;100.00
74905;BME280;63465;50.862;6.220;2023-07-29T12:14:34;99171.31;;;23.77;100.00
74905;BME280;63465;50.862;6.220;2023-07-29T12:17:01;99165.25;;;23.75;100.00
74905;BME280;63465;50.862;6.220;2023-07-29T12:19:37;99166.47;;;23.40;100.00
74905;BME280;63465;50.862;6.220;2023-07-29T12:22:04;99166.94;;;22.94;100.00
74905;BME280;63465;50.862;6.220;2023-07-29T12:24:30;99172.38;;;22.86;100.00
74905;BME280;63465;50.862;6.220;2023-07-29T12:26:56;99175.06;;;22.77;100.00
74905;BME280;63465;50.862;6.220;2023-07-29T12:29:22;99182.53;;;22.92;100.00
74905;BME280;63465;50.862;6.220;2023-07-29T12:31:48;99194.84;;;22.78;100.00
74905;BME280;63465;50.862;6.220;2023-07-29T12:34:20;99185.72;;;22.28;100.00
74905;BME280;63465;50.862;6.220;2023-07-29T12:36:50;99188.53;;;22.53;100.00
74905;BME280;63465;50.862;6.220;2023-07-29T12:39:29;99191.97;;;22.79;100.00
74905;BME280;63465;50.862;6.220;2023-07-29T12:41:57;99208.13;;;22.47;100.00
74905;BME280;63465;50.862;6.220;2023-07-29T12:44:24;99215.38;;;22.46;100.00
74905;BME280;63465;50.862;6.220;2023-07-29T12:46:49;99210.13;;;22.44;100.00
74905;BME280;63465;50.862;6.220;2023-07-29T12:49:15;99207.06;;;22.05;100.00